sensor_id;sensor_type;location;lat;lon;timestamp;temperature;humidity
41437;DHT22;27178;49.460;10.850;2023-12-20T00:02:23;9.10;87.30
41437;DHT22;27178;49.460;10.850;2023-12-20T00:04:54;9.10;87.30
41437;DHT22;27178;49.460;10.850;2023-12-20T00:07:23;9.10;87.40
41437;DHT22;27178;49.460;10.850;2023-12-20T00:09:51;9.10;87.40
41437;DHT22;27178;49.460;10.850;2023-12-20T00:12:19;9.10;87.40
41437;DHT22;27178;49.460;10.850;2023-12-20T00:14:48;9.10;87.50
41437;DHT22;27178;49.460;10.850;2023-12-20T00:17:17;9.10;87.70
41437;DHT22;27178;49.460;10.850;2023-12-20T00:19:45;9.10;87.80
41437;DHT22;27178;49.460;10.850;2023-12-20T00:22:14;9.10;87.70
41437;DHT22;27178;49.460;10.850;2023-12-20T00:24:42;9.10;87.90
41437;DHT22;27178;49.460;10.850;2023-12-20T00:27:11;9.10;88.00
41437;DHT22;27178;49.460;10.850;2023-12-20T00:29:39;9.10;88.00
41437;DHT22;27178;49.460;10.850;2023-12-20T00:32:13;9.10;88.00
41437;DHT22;27178;49.460;10.850;2023-12-20T00:34:42;9.10;87.90
41437;DHT22;27178;49.460;10.850;2023-12-20T00:37:11;9.10;88.20
41437;DHT22;27178;49.460;10.850;2023-12-20T00:39:41;9.10;88.10
41437;DHT22;27178;49.460;10.850;2023-12-20T00:42:09;9.10;88.30
41437;DHT22;27178;49.460;10.850;2023-12-20T00:44:37;9.10;88.20
41437;DHT22;27178;49.460;10.850;2023-12-20T00:47:08;9.10;88.30
41437;DHT22;27178;49.460;10.850;2023-12-20T00:49:37;9.10;88.40
41437;DHT22;27178;49.460;10.850;2023-12-20T00:52:08;9.10;88.40
41437;DHT22;27178;49.460;10.850;2023-12-20T00:54:36;9.10;88.40
41437;DHT22;27178;49.460;10.850;2023-12-20T00:57:06;9.20;88.50
41437;DHT22;27178;49.460;10.850;2023-12-20T00:59:34;9.10;88.50
41437;DHT22;27178;49.460;10.850;2023-12-20T01:02:03;9.20;88.50
41437;DHT22;27178;49.460;10.850;2023-12-20T01:04:32;9.10;88.50
41437;DHT22;27178;49.460;10.850;2023-12-20T01:07:00;9.20;88.60
41437;DHT22;27178;49.460;10.850;2023-12-20T01:09:28;9.10;88.60
41437;DHT22;27178;49.460;10.850;2023-12-20T01:11:57;9.10;88.60
41437;DHT22;27178;49.460;10.850;2023-12-20T01:14:27;9.10;88.60
41437;DHT22;27178;49.460;10.850;2023-12-20T01:16:55;9.10;88.70
41437;DHT22;27178;49.460;10.850;2023-12-20T01:19:24;9.10;89.70
41437;DHT22;27178;49.460;10.850;2023-12-20T01:21:54;9.10;88.90
41437;DHT22;27178;49.460;10.850;2023-12-20T01:24:23;9.10;88.90
41437;DHT22;27178;49.460;10.850;2023-12-20T01:26:51;9.10;89.10
41437;DHT22;27178;49.460;10.850;2023-12-20T01:29:19;9.10;88.90
41437;DHT22;27178;49.460;10.850;2023-12-20T01:31:49;9.10;88.80
41437;DHT22;27178;49.460;10.850;2023-12-20T01:34:18;9.10;88.90
41437;DHT22;27178;49.460;10.850;2023-12-20T01:36:46;9.10;88.90
41437;DHT22;27178;49.460;10.850;2023-12-20T01:39:15;9.00;88.90
41437;DHT22;27178;49.460;10.850;2023-12-20T01:41:54;9.00;88.90
41437;DHT22;27178;49.460;10.850;2023-12-20T01:44:22;9.10;89.00
41437;DHT22;27178;49.460;10.850;2023-12-20T01:46:52;9.00;89.10
41437;DHT22;27178;49.460;10.850;2023-12-20T01:49:21;9.10;89.10
41437;DHT22;27178;49.460;10.850;2023-12-20T01:51:50;9.00;90.00
41437;DHT22;27178;49.460;10.850;2023-12-20T01:54:19;9.00;89.10
41437;DHT22;27178;49.460;10.850;2023-12-20T01:56:49;9.00;89.30
41437;DHT22;27178;49.460;10.850;2023-12-20T01:59:19;9.00;89.20
41437;DHT22;27178;49.460;10.850;2023-12-20T02:01:48;9.00;89.20
41437;DHT22;27178;49.460;10.850;2023-12-20T02:04:19;9.00;89.10
41437;DHT22;27178;49.460;10.850;2023-12-20T02:06:48;9.00;89.20
41437;DHT22;27178;49.460;10.850;2023-12-20T02:09:20;9.00;89.30
41437;DHT22;27178;49.460;10.850;2023-12-20T02:11:49;9.00;89.10
41437;DHT22;27178;49.460;10.850;2023-12-20T02:14:17;8.90;89.10
41437;DHT22;27178;49.460;10.850;2023-12-20T02:16:45;9.00;89.10
41437;DHT22;27178;49.460;10.850;2023-12-20T02:19:14;8.90;88.90
41437;DHT22;27178;49.460;10.850;2023-12-20T02:21:45;8.90;88.90
41437;DHT22;27178;49.460;10.850;2023-12-20T02:24:14;8.90;88.80
41437;DHT22;27178;49.460;10.850;2023-12-20T02:26:42;8.90;88.80
41437;DHT22;27178;49.460;10.850;2023-12-20T02:29:13;8.90;88.90
41437;DHT22;27178;49.460;10.850;2023-12-20T02:31:41;8.90;88.80
41437;DHT22;27178;49.460;10.850;2023-12-20T02:34:09;8.80;88.80
41437;DHT22;27178;49.460;10.850;2023-12-20T02:36:38;8.80;88.90
41437;DHT22;27178;49.460;10.850;2023-12-20T02:39:07;8.80;88.90
41437;DHT22;27178;49.460;10.850;2023-12-20T02:41:36;8.80;88.90
41437;DHT22;27178;49.460;10.850;2023-12-20T02:44:04;8.80;88.90
41437;DHT22;27178;49.460;10.850;2023-12-20T02:46:33;8.80;88.90
41437;DHT22;27178;49.460;10.850;2023-12-20T02:49:02;8.70;88.90
41437;DHT22;27178;49.460;10.850;2023-12-20T02:51:30;8.70;89.00
41437;DHT22;27178;49.460;10.850;2023-12-20T02:53:58;8.70;89.10
41437;DHT22;27178;49.460;10.850;2023-12-20T02:56:28;8.70;89.10
41437;DHT22;27178;49.460;10.850;2023-12-20T02:58:56;8.70;89.10
41437;DHT22;27178;49.460;10.850;2023-12-20T03:01:24;8.70;89.00
41437;DHT22;27178;49.460;10.850;2023-12-20T03:03:53;8.70;89.00
41437;DHT22;27178;49.460;10.850;2023-12-20T03:06:22;8.70;89.20
41437;DHT22;27178;49.460;10.850;2023-12-20T03:08:50;8.70;88.90
41437;DHT22;27178;49.460;10.850;2023-12-20T03:11:18;8.60;88.70
41437;DHT22;27178;49.460;10.850;2023-12-20T03:13:48;8.60;88.80
41437;DHT22;27178;49.460;10.850;2023-12-20T03:16:17;8.60;88.80
41437;DHT22;27178;49.460;10.850;2023-12-20T03:18:45;8.60;88.80
41437;DHT22;27178;49.460;10.850;2023-12-20T03:21:14;8.60;88.80
41437;DHT22;27178;49.460;10.850;2023-12-20T03:23:42;8.60;88.80
41437;DHT22;27178;49.460;10.850;2023-12-20T03:26:10;8.50;89.00
41437;DHT22;27178;49.460;10.850;2023-12-20T03:28:40;8.50;89.00
41437;DHT22;27178;49.460;10.850;2023-12-20T03:31:09;8.50;89.00
41437;DHT22;27178;49.460;10.850;2023-12-20T03:33:38;8.50;89.20
41437;DHT22;27178;49.460;10.850;2023-12-20T03:36:07;8.50;89.00
41437;DHT22;27178;49.460;10.850;2023-12-20T03:38:35;8.50;89.20
41437;DHT22;27178;49.460;10.850;2023-12-20T03:41:04;8.50;89.10
41437;DHT22;27178;49.460;10.850;2023-12-20T03:43:33;8.50;89.20
41437;DHT22;27178;49.460;10.850;2023-12-20T03:46:03;8.50;89.00
41437;DHT22;27178;49.460;10.850;2023-12-20T03:48:33;8.50;89.20
41437;DHT22;27178;49.460;10.850;2023-12-20T03:51:01;8.50;89.20
41437;DHT22;27178;49.460;10.850;2023-12-20T03:53:30;8.50;89.20
41437;DHT22;27178;49.460;10.850;2023-12-20T03:55:59;8.40;89.10
41437;DHT22;27178;49.460;10.850;2023-12-20T03:58:27;8.40;89.00
41437;DHT22;27178;49.460;10.850;2023-12-20T04:00:56;8.40;89.00
41437;DHT22;27178;49.460;10.850;2023-12-20T04:03:24;8.40;89.00
41437;DHT22;27178;49.460;10.850;2023-12-20T04:05:53;8.40;89.10
41437;DHT22;27178;49.460;10.850;2023-12-20T04:08:22;8.40;89.20
41437;DHT22;27178;49.460;10.850;2023-12-20T04:10:50;8.40;89.20
41437;DHT22;27178;49.460;10.850;2023-12-20T04:13:19;8.40;90.00
41437;DHT22;27178;49.460;10.850;2023-12-20T04:15:47;8.40;89.20
41437;DHT22;27178;49.460;10.850;2023-12-20T04:18:17;8.40;89.30
41437;DHT22;27178;49.460;10.850;2023-12-20T04:20:46;8.30;89.20
41437;DHT22;27178;49.460;10.850;2023-12-20T04:23:16;8.30;89.30
41437;DHT22;27178;49.460;10.850;2023-12-20T04:25:44;8.30;89.20
41437;DHT22;27178;49.460;10.850;2023-12-20T04:28:14;8.30;89.20
41437;DHT22;27178;49.460;10.850;2023-12-20T04:30:42;8.30;89.30
41437;DHT22;27178;49.460;10.850;2023-12-20T04:33:11;8.30;89.20
41437;DHT22;27178;49.460;10.850;2023-12-20T04:35:39;8.30;89.20
41437;DHT22;27178;49.460;10.850;2023-12-20T04:38:10;8.70;89.60
41437;DHT22;27178;49.460;10.850;2023-12-20T04:40:40;8.30;89.20
41437;DHT22;27178;49.460;10.850;2023-12-20T04:43:08;8.30;89.40
41437;DHT22;27178;49.460;10.850;2023-12-20T04:45:36;8.30;89.30
41437;DHT22;27178;49.460;10.850;2023-12-20T04:48:06;8.30;89.30
41437;DHT22;27178;49.460;10.850;2023-12-20T04:50:34;8.30;89.30
41437;DHT22;27178;49.460;10.850;2023-12-20T04:53:02;8.30;89.20
41437;DHT22;27178;49.460;10.850;2023-12-20T04:55:31;8.30;89.20
41437;DHT22;27178;49.460;10.850;2023-12-20T04:58:00;7.90;89.20
41437;DHT22;27178;49.460;10.850;2023-12-20T05:00:29;8.20;89.40
41437;DHT22;27178;49.460;10.850;2023-12-20T05:02:57;8.20;89.50
41437;DHT22;27178;49.460;10.850;2023-12-20T05:05:26;8.20;89.40
41437;DHT22;27178;49.460;10.850;2023-12-20T05:07:54;8.20;89.50
41437;DHT22;27178;49.460;10.850;2023-12-20T05:10:23;8.20;89.50
41437;DHT22;27178;49.460;10.850;2023-12-20T05:12:51;8.20;89.60
41437;DHT22;27178;49.460;10.850;2023-12-20T05:15:21;8.20;89.50
41437;DHT22;27178;49.460;10.850;2023-12-20T05:17:49;8.20;89.60
41437;DHT22;27178;49.460;10.850;2023-12-20T05:20:18;8.20;89.60
41437;DHT22;27178;49.460;10.850;2023-12-20T05:22:47;8.20;89.60
41437;DHT22;27178;49.460;10.850;2023-12-20T05:25:15;8.20;89.60
41437;DHT22;27178;49.460;10.850;2023-12-20T05:27:43;8.20;89.60
41437;DHT22;27178;49.460;10.850;2023-12-20T05:30:12;8.10;89.60
41437;DHT22;27178;49.460;10.850;2023-12-20T05:32:42;8.10;89.70
41437;DHT22;27178;49.460;10.850;2023-12-20T05:35:11;8.20;89.70
41437;DHT22;27178;49.460;10.850;2023-12-20T05:37:40;8.20;89.80
41437;DHT22;27178;49.460;10.850;2023-12-20T05:40:09;8.20;89.80
41437;DHT22;27178;49.460;10.850;2023-12-20T05:42:38;8.20;89.80
41437;DHT22;27178;49.460;10.850;2023-12-20T05:45:07;8.20;89.80
41437;DHT22;27178;49.460;10.850;2023-12-20T05:47:35;8.10;89.80
41437;DHT22;27178;49.460;10.850;2023-12-20T05:50:06;8.20;89.90
41437;DHT22;27178;49.460;10.850;2023-12-20T05:52:35;8.10;90.00
41437;DHT22;27178;49.460;10.850;2023-12-20T05:55:04;8.20;90.00
41437;DHT22;27178;49.460;10.850;2023-12-20T05:57:32;8.10;90.00
41437;DHT22;27178;49.460;10.850;2023-12-20T06:00:01;8.20;90.00
41437;DHT22;27178;49.460;10.850;2023-12-20T06:02:30;8.10;90.00
41437;DHT22;27178;49.460;10.850;2023-12-20T06:04:58;8.20;90.00
41437;DHT22;27178;49.460;10.850;2023-12-20T06:07:28;8.10;90.00
41437;DHT22;27178;49.460;10.850;2023-12-20T06:09:57;8.10;90.00
41437;DHT22;27178;49.460;10.850;2023-12-20T06:12:25;8.20;90.00
41437;DHT22;27178;49.460;10.850;2023-12-20T06:14:54;8.20;90.00
41437;DHT22;27178;49.460;10.850;2023-12-20T06:17:22;8.20;90.00
41437;DHT22;27178;49.460;10.850;2023-12-20T06:19:51;8.20;90.10
41437;DHT22;27178;49.460;10.850;2023-12-20T06:22:20;8.20;90.00
41437;DHT22;27178;49.460;10.850;2023-12-20T06:24:49;8.20;90.00
41437;DHT22;27178;49.460;10.850;2023-12-20T06:27:18;8.20;90.00
41437;DHT22;27178;49.460;10.850;2023-12-20T06:29:46;8.20;90.10
41437;DHT22;27178;49.460;10.850;2023-12-20T06:32:15;8.20;90.10
41437;DHT22;27178;49.460;10.850;2023-12-20T06:34:43;8.20;90.10
41437;DHT22;27178;49.460;10.850;2023-12-20T06:37:11;8.20;90.20
41437;DHT22;27178;49.460;10.850;2023-12-20T06:39:39;8.20;90.20
41437;DHT22;27178;49.460;10.850;2023-12-20T06:42:09;8.20;90.20
41437;DHT22;27178;49.460;10.850;2023-12-20T06:44:37;8.20;90.20
41437;DHT22;27178;49.460;10.850;2023-12-20T06:47:07;8.30;90.30
41437;DHT22;27178;49.460;10.850;2023-12-20T06:49:35;8.20;90.20
41437;DHT22;27178;49.460;10.850;2023-12-20T06:52:04;8.20;90.30
41437;DHT22;27178;49.460;10.850;2023-12-20T06:54:32;8.20;90.30
41437;DHT22;27178;49.460;10.850;2023-12-20T06:57:01;8.30;90.30
41437;DHT22;27178;49.460;10.850;2023-12-20T06:59:32;8.30;90.40
41437;DHT22;27178;49.460;10.850;2023-12-20T07:02:01;8.30;90.40
41437;DHT22;27178;49.460;10.850;2023-12-20T07:04:29;8.30;90.30
41437;DHT22;27178;49.460;10.850;2023-12-20T07:06:58;8.30;90.40
41437;DHT22;27178;49.460;10.850;2023-12-20T07:09:27;8.30;90.40
41437;DHT22;27178;49.460;10.850;2023-12-20T07:11:55;8.30;90.40
41437;DHT22;27178;49.460;10.850;2023-12-20T07:14:24;8.30;90.40
41437;DHT22;27178;49.460;10.850;2023-12-20T07:16:53;8.40;90.50
41437;DHT22;27178;49.460;10.850;2023-12-20T07:19:22;8.30;90.40
41437;DHT22;27178;49.460;10.850;2023-12-20T07:21:50;8.40;90.40
41437;DHT22;27178;49.460;10.850;2023-12-20T07:24:19;8.40;90.60
41437;DHT22;27178;49.460;10.850;2023-12-20T07:26:47;8.40;90.50
41437;DHT22;27178;49.460;10.850;2023-12-20T07:29:16;8.40;90.50
41437;DHT22;27178;49.460;10.850;2023-12-20T07:31:44;8.40;90.50
41437;DHT22;27178;49.460;10.850;2023-12-20T07:34:14;8.40;90.50
41437;DHT22;27178;49.460;10.850;2023-12-20T07:36:43;8.40;90.50
41437;DHT22;27178;49.460;10.850;2023-12-20T07:39:11;8.40;90.50
41437;DHT22;27178;49.460;10.850;2023-12-20T07:41:39;8.40;90.50
41437;DHT22;27178;49.460;10.850;2023-12-20T07:44:10;8.40;90.50
41437;DHT22;27178;49.460;10.850;2023-12-20T07:46:38;8.40;90.50
41437;DHT22;27178;49.460;10.850;2023-12-20T07:49:11;8.40;90.40
41437;DHT22;27178;49.460;10.850;2023-12-20T07:51:42;8.50;90.60
41437;DHT22;27178;49.460;10.850;2023-12-20T07:54:11;8.50;90.60
41437;DHT22;27178;49.460;10.850;2023-12-20T07:56:39;8.50;90.60
41437;DHT22;27178;49.460;10.850;2023-12-20T07:59:07;8.50;90.50
41437;DHT22;27178;49.460;10.850;2023-12-20T08:01:51;8.50;90.60
41437;DHT22;27178;49.460;10.850;2023-12-20T08:04:19;8.50;90.60
41437;DHT22;27178;49.460;10.850;2023-12-20T08:06:50;8.50;91.00
41437;DHT22;27178;49.460;10.850;2023-12-20T08:09:18;8.50;90.60
41437;DHT22;27178;49.460;10.850;2023-12-20T08:11:47;8.50;90.60
41437;DHT22;27178;49.460;10.850;2023-12-20T08:14:15;8.50;90.50
41437;DHT22;27178;49.460;10.850;2023-12-20T08:16:44;8.50;90.50
41437;DHT22;27178;49.460;10.850;2023-12-20T08:19:12;8.50;90.40
41437;DHT22;27178;49.460;10.850;2023-12-20T08:21:41;8.50;90.50
41437;DHT22;27178;49.460;10.850;2023-12-20T08:24:12;8.50;90.50
41437;DHT22;27178;49.460;10.850;2023-12-20T08:26:40;8.50;90.50
41437;DHT22;27178;49.460;10.850;2023-12-20T08:29:08;8.50;90.30
41437;DHT22;27178;49.460;10.850;2023-12-20T08:31:37;8.50;90.30
41437;DHT22;27178;49.460;10.850;2023-12-20T08:34:05;8.50;90.30
41437;DHT22;27178;49.460;10.850;2023-12-20T08:36:35;8.50;90.30
41437;DHT22;27178;49.460;10.850;2023-12-20T08:39:03;8.50;90.30
41437;DHT22;27178;49.460;10.850;2023-12-20T08:41:35;8.50;90.20
41437;DHT22;27178;49.460;10.850;2023-12-20T08:44:04;8.50;90.30
41437;DHT22;27178;49.460;10.850;2023-12-20T08:46:32;8.50;90.30
41437;DHT22;27178;49.460;10.850;2023-12-20T08:49:01;8.50;90.30
41437;DHT22;27178;49.460;10.850;2023-12-20T08:51:29;8.50;90.30
41437;DHT22;27178;49.460;10.850;2023-12-20T08:53:57;8.50;90.20
41437;DHT22;27178;49.460;10.850;2023-12-20T08:56:25;8.50;90.10
41437;DHT22;27178;49.460;10.850;2023-12-20T08:58:55;8.50;90.00
41437;DHT22;27178;49.460;10.850;2023-12-20T09:01:24;8.50;90.00
41437;DHT22;27178;49.460;10.850;2023-12-20T09:03:52;8.50;90.00
41437;DHT22;27178;49.460;10.850;2023-12-20T09:06:20;8.40;89.80
41437;DHT22;27178;49.460;10.850;2023-12-20T09:08:49;8.40;89.90
41437;DHT22;27178;49.460;10.850;2023-12-20T09:11:17;8.40;89.80
41437;DHT22;27178;49.460;10.850;2023-12-20T09:13:46;8.40;89.70
41437;DHT22;27178;49.460;10.850;2023-12-20T09:16:16;8.40;89.80
41437;DHT22;27178;49.460;10.850;2023-12-20T09:18:44;8.40;89.80
41437;DHT22;27178;49.460;10.850;2023-12-20T09:21:12;8.40;89.60
41437;DHT22;27178;49.460;10.850;2023-12-20T09:23:41;8.40;89.70
41437;DHT22;27178;49.460;10.850;2023-12-20T09:26:09;8.40;89.60
41437;DHT22;27178;49.460;10.850;2023-12-20T09:28:38;8.40;89.40
41437;DHT22;27178;49.460;10.850;2023-12-20T09:31:07;8.40;89.20
41437;DHT22;27178;49.460;10.850;2023-12-20T09:33:37;8.30;89.10
41437;DHT22;27178;49.460;10.850;2023-12-20T09:36:06;8.30;89.00
41437;DHT22;27178;49.460;10.850;2023-12-20T09:38:34;8.30;89.00
41437;DHT22;27178;49.460;10.850;2023-12-20T09:41:03;8.30;88.90
41437;DHT22;27178;49.460;10.850;2023-12-20T09:43:37;8.30;89.10
41437;DHT22;27178;49.460;10.850;2023-12-20T09:46:06;8.30;89.20
41437;DHT22;27178;49.460;10.850;2023-12-20T09:48:37;8.30;89.20
41437;DHT22;27178;49.460;10.850;2023-12-20T09:51:06;8.30;89.10
41437;DHT22;27178;49.460;10.850;2023-12-20T09:53:37;8.30;89.10
41437;DHT22;27178;49.460;10.850;2023-12-20T09:56:07;8.30;89.90
41437;DHT22;27178;49.460;10.850;2023-12-20T09:58:37;8.30;88.90
41437;DHT22;27178;49.460;10.850;2023-12-20T10:01:07;8.40;89.10
41437;DHT22;27178;49.460;10.850;2023-12-20T10:03:39;8.40;89.20
41437;DHT22;27178;49.460;10.850;2023-12-20T10:06:09;8.40;89.20
41437;DHT22;27178;49.460;10.850;2023-12-20T10:08:38;8.40;89.10
41437;DHT22;27178;49.460;10.850;2023-12-20T10:11:07;8.50;88.90
41437;DHT22;27178;49.460;10.850;2023-12-20T10:13:39;8.40;88.80
41437;DHT22;27178;49.460;10.850;2023-12-20T10:16:08;8.50;89.60
41437;DHT22;27178;49.460;10.850;2023-12-20T10:18:38;8.50;88.50
41437;DHT22;27178;49.460;10.850;2023-12-20T10:21:07;8.50;88.30
41437;DHT22;27178;49.460;10.850;2023-12-20T10:23:37;8.50;88.20
41437;DHT22;27178;49.460;10.850;2023-12-20T10:26:06;8.60;88.20
41437;DHT22;27178;49.460;10.850;2023-12-20T10:28:35;8.60;87.70
41437;DHT22;27178;49.460;10.850;2023-12-20T10:31:04;8.60;87.50
41437;DHT22;27178;49.460;10.850;2023-12-20T10:33:33;8.60;87.50
41437;DHT22;27178;49.460;10.850;2023-12-20T10:36:04;8.60;87.50
41437;DHT22;27178;49.460;10.850;2023-12-20T10:38:33;8.60;87.40
41437;DHT22;27178;49.460;10.850;2023-12-20T10:41:04;10.20;88.50
41437;DHT22;27178;49.460;10.850;2023-12-20T10:43:34;8.70;87.40
41437;DHT22;27178;49.460;10.850;2023-12-20T10:46:04;8.70;87.20
41437;DHT22;27178;49.460;10.850;2023-12-20T10:48:34;8.70;87.10
41437;DHT22;27178;49.460;10.850;2023-12-20T10:51:06;8.70;87.10
41437;DHT22;27178;49.460;10.850;2023-12-20T10:53:35;8.70;86.90
41437;DHT22;27178;49.460;10.850;2023-12-20T10:56:06;8.70;87.00
41437;DHT22;27178;49.460;10.850;2023-12-20T10:58:37;8.70;86.90
41437;DHT22;27178;49.460;10.850;2023-12-20T11:01:07;8.70;86.80
41437;DHT22;27178;49.460;10.850;2023-12-20T11:03:36;8.70;86.80
41437;DHT22;27178;49.460;10.850;2023-12-20T11:06:10;8.70;86.80
41437;DHT22;27178;49.460;10.850;2023-12-20T11:08:49;8.70;86.60
41437;DHT22;27178;49.460;10.850;2023-12-20T11:11:23;8.70;86.60
41437;DHT22;27178;49.460;10.850;2023-12-20T11:13:57;8.70;86.70
41437;DHT22;27178;49.460;10.850;2023-12-20T11:16:27;8.70;86.50
41437;DHT22;27178;49.460;10.850;2023-12-20T11:19:11;8.70;86.40
41437;DHT22;27178;49.460;10.850;2023-12-20T11:21:42;8.70;86.30
41437;DHT22;27178;49.460;10.850;2023-12-20T11:24:10;8.70;86.20
41437;DHT22;27178;49.460;10.850;2023-12-20T11:26:46;8.70;86.20
41437;DHT22;27178;49.460;10.850;2023-12-20T11:29:31;8.70;86.10
41437;DHT22;27178;49.460;10.850;2023-12-20T11:32:02;8.70;86.00
41437;DHT22;27178;49.460;10.850;2023-12-20T11:34:32;8.70;86.20
41437;DHT22;27178;49.460;10.850;2023-12-20T11:37:04;8.70;86.30
41437;DHT22;27178;49.460;10.850;2023-12-20T11:39:32;8.70;86.20
41437;DHT22;27178;49.460;10.850;2023-12-20T11:42:04;8.70;86.10
41437;DHT22;27178;49.460;10.850;2023-12-20T11:44:34;8.70;86.10
41437;DHT22;27178;49.460;10.850;2023-12-20T11:47:04;8.70;86.30
41437;DHT22;27178;49.460;10.850;2023-12-20T11:49:32;8.70;86.10
41437;DHT22;27178;49.460;10.850;2023-12-20T11:52:03;8.70;86.10
41437;DHT22;27178;49.460;10.850;2023-12-20T11:54:32;8.70;86.20
41437;DHT22;27178;49.460;10.850;2023-12-20T11:57:00;8.70;85.90
41437;DHT22;27178;49.460;10.850;2023-12-20T11:59:28;8.70;85.90
41437;DHT22;27178;49.460;10.850;2023-12-20T12:01:58;8.70;86.00
41437;DHT22;27178;49.460;10.850;2023-12-20T12:04:28;8.70;86.10
41437;DHT22;27178;49.460;10.850;2023-12-20T12:06:57;8.70;86.00
41437;DHT22;27178;49.460;10.850;2023-12-20T12:09:27;8.70;85.60
41437;DHT22;27178;49.460;10.850;2023-12-20T12:11:55;8.70;85.70
41437;DHT22;27178;49.460;10.850;2023-12-20T12:14:24;8.70;86.00
41437;DHT22;27178;49.460;10.850;2023-12-20T12:16:52;8.70;86.10
41437;DHT22;27178;49.460;10.850;2023-12-20T12:19:22;8.80;86.00
41437;DHT22;27178;49.460;10.850;2023-12-20T12:21:50;8.70;85.80
41437;DHT22;27178;49.460;10.850;2023-12-20T12:24:20;8.80;85.80
41437;DHT22;27178;49.460;10.850;2023-12-20T12:26:57;8.80;85.80
41437;DHT22;27178;49.460;10.850;2023-12-20T12:29:26;8.80;85.80
41437;DHT22;27178;49.460;10.850;2023-12-20T12:31:54;8.80;85.70
41437;DHT22;27178;49.460;10.850;2023-12-20T12:34:23;8.80;85.80
41437;DHT22;27178;49.460;10.850;2023-12-20T12:36:51;8.80;85.80
41437;DHT22;27178;49.460;10.850;2023-12-20T12:39:19;8.90;85.80
41437;DHT22;27178;49.460;10.850;2023-12-20T12:41:48;8.90;85.90
41437;DHT22;27178;49.460;10.850;2023-12-20T12:44:18;8.90;85.80
41437;DHT22;27178;49.460;10.850;2023-12-20T12:46:46;8.90;85.30
41437;DHT22;27178;49.460;10.850;2023-12-20T12:49:17;8.90;85.40
41437;DHT22;27178;49.460;10.850;2023-12-20T12:51:46;8.90;85.00
41437;DHT22;27178;49.460;10.850;2023-12-20T12:54:14;8.90;84.70
41437;DHT22;27178;49.460;10.850;2023-12-20T12:56:43;8.90;84.80
41437;DHT22;27178;49.460;10.850;2023-12-20T12:59:12;8.90;85.00
41437;DHT22;27178;49.460;10.850;2023-12-20T13:01:41;8.90;85.00
41437;DHT22;27178;49.460;10.850;2023-12-20T13:04:10;8.90;84.80
41437;DHT22;27178;49.460;10.850;2023-12-20T13:06:39;8.90;84.90
41437;DHT22;27178;49.460;10.850;2023-12-20T13:09:09;8.90;85.10
41437;DHT22;27178;49.460;10.850;2023-12-20T13:11:37;8.90;84.70
41437;DHT22;27178;49.460;10.850;2023-12-20T13:14:08;8.90;84.70
41437;DHT22;27178;49.460;10.850;2023-12-20T13:16:43;8.90;84.60
41437;DHT22;27178;49.460;10.850;2023-12-20T13:19:12;8.90;84.70
41437;DHT22;27178;49.460;10.850;2023-12-20T13:21:41;8.90;84.90
41437;DHT22;27178;49.460;10.850;2023-12-20T13:24:09;8.90;85.00
41437;DHT22;27178;49.460;10.850;2023-12-20T13:26:37;8.90;84.60
41437;DHT22;27178;49.460;10.850;2023-12-20T13:29:05;8.90;84.50
41437;DHT22;27178;49.460;10.850;2023-12-20T13:31:34;8.90;84.30
41437;DHT22;27178;49.460;10.850;2023-12-20T13:34:06;8.90;84.40
41437;DHT22;27178;49.460;10.850;2023-12-20T13:36:34;8.90;84.20
41437;DHT22;27178;49.460;10.850;2023-12-20T13:39:03;8.90;84.10
41437;DHT22;27178;49.460;10.850;2023-12-20T13:41:31;8.90;84.10
41437;DHT22;27178;49.460;10.850;2023-12-20T13:44:00;8.90;84.10
41437;DHT22;27178;49.460;10.850;2023-12-20T13:46:30;8.90;83.90
41437;DHT22;27178;49.460;10.850;2023-12-20T13:48:59;8.90;84.20
41437;DHT22;27178;49.460;10.850;2023-12-20T13:51:30;8.90;84.30
41437;DHT22;27178;49.460;10.850;2023-12-20T13:53:58;8.90;84.30
41437;DHT22;27178;49.460;10.850;2023-12-20T13:56:26;8.90;84.30
41437;DHT22;27178;49.460;10.850;2023-12-20T13:58:55;8.90;83.90
41437;DHT22;27178;49.460;10.850;2023-12-20T14:01:23;10.40;85.10
41437;DHT22;27178;49.460;10.850;2023-12-20T14:03:53;8.80;83.70
41437;DHT22;27178;49.460;10.850;2023-12-20T14:06:22;8.80;83.40
41437;DHT22;27178;49.460;10.850;2023-12-20T14:08:51;8.80;83.00
41437;DHT22;27178;49.460;10.850;2023-12-20T14:11:21;8.80;83.50
41437;DHT22;27178;49.460;10.850;2023-12-20T14:13:51;8.80;83.40
41437;DHT22;27178;49.460;10.850;2023-12-20T14:16:20;8.80;83.60
41437;DHT22;27178;49.460;10.850;2023-12-20T14:18:48;8.70;83.50
41437;DHT22;27178;49.460;10.850;2023-12-20T14:21:17;8.70;83.60
41437;DHT22;27178;49.460;10.850;2023-12-20T14:23:46;8.70;83.40
41437;DHT22;27178;49.460;10.850;2023-12-20T14:26:17;8.70;83.80
41437;DHT22;27178;49.460;10.850;2023-12-20T14:28:46;8.70;84.20
41437;DHT22;27178;49.460;10.850;2023-12-20T14:31:14;8.70;84.20
41437;DHT22;27178;49.460;10.850;2023-12-20T14:33:42;8.70;84.40
41437;DHT22;27178;49.460;10.850;2023-12-20T14:36:11;8.60;84.20
41437;DHT22;27178;49.460;10.850;2023-12-20T14:38:39;8.70;84.30
41437;DHT22;27178;49.460;10.850;2023-12-20T14:41:08;8.60;84.40
41437;DHT22;27178;49.460;10.850;2023-12-20T14:43:38;8.60;84.70
41437;DHT22;27178;49.460;10.850;2023-12-20T14:46:06;8.60;84.50
41437;DHT22;27178;49.460;10.850;2023-12-20T14:48:34;8.70;84.50
41437;DHT22;27178;49.460;10.850;2023-12-20T14:51:03;8.60;84.40
41437;DHT22;27178;49.460;10.850;2023-12-20T14:53:32;8.60;84.40
41437;DHT22;27178;49.460;10.850;2023-12-20T14:56:03;8.60;84.30
41437;DHT22;27178;49.460;10.850;2023-12-20T14:58:33;8.60;85.40
41437;DHT22;27178;49.460;10.850;2023-12-20T15:01:03;8.60;84.20
41437;DHT22;27178;49.460;10.850;2023-12-20T15:03:34;8.60;84.40
41437;DHT22;27178;49.460;10.850;2023-12-20T15:06:03;8.60;84.40
41437;DHT22;27178;49.460;10.850;2023-12-20T15:08:32;8.60;84.50
41437;DHT22;27178;49.460;10.850;2023-12-20T15:11:00;8.60;84.40
41437;DHT22;27178;49.460;10.850;2023-12-20T15:13:31;8.50;84.40
41437;DHT22;27178;49.460;10.850;2023-12-20T15:15:59;8.50;84.60
41437;DHT22;27178;49.460;10.850;2023-12-20T15:18:30;8.50;84.60
41437;DHT22;27178;49.460;10.850;2023-12-20T15:21:00;8.50;84.50
41437;DHT22;27178;49.460;10.850;2023-12-20T15:23:28;8.50;84.70
41437;DHT22;27178;49.460;10.850;2023-12-20T15:25:58;8.50;84.60
41437;DHT22;27178;49.460;10.850;2023-12-20T15:28:26;8.50;84.60
41437;DHT22;27178;49.460;10.850;2023-12-20T15:30:55;8.50;84.60
41437;DHT22;27178;49.460;10.850;2023-12-20T15:33:24;8.50;84.60
41437;DHT22;27178;49.460;10.850;2023-12-20T15:35:54;8.50;84.40
41437;DHT22;27178;49.460;10.850;2023-12-20T15:38:22;8.50;84.50
41437;DHT22;27178;49.460;10.850;2023-12-20T15:40:50;8.50;84.10
41437;DHT22;27178;49.460;10.850;2023-12-20T15:43:19;8.50;84.00